sensor_id;sensor_type;location;lat;lon;timestamp;P1;durP1;ratioP1;P2;durP2;ratioP2
69172;SDS011;56280;49.662;8.408;2022-08-05T00:02:18;16.90;;;4.87;;
69172;SDS011;56280;49.662;8.408;2022-08-05T00:04:43;13.73;;;4.10;;
69172;SDS011;56280;49.662;8.408;2022-08-05T00:07:10;15.73;;;4.65;;
69172;SDS011;56280;49.662;8.408;2022-08-05T00:09:35;13.10;;;5.53;;
69172;SDS011;56280;49.662;8.408;2022-08-05T00:12:00;13.87;;;5.40;;
69172;SDS011;56280;49.662;8.408;2022-08-05T00:14:26;11.63;;;5.87;;
69172;SDS011;56280;49.662;8.408;2022-08-05T00:16:51;16.37;;;6.03;;
69172;SDS011;56280;49.662;8.408;2022-08-05T00:19:16;11.30;;;6.53;;
69172;SDS011;56280;49.662;8.408;2022-08-05T00:21:41;12.23;;;7.60;;
69172;SDS011;56280;49.662;8.408;2022-08-05T00:24:07;13.68;;;8.05;;
69172;SDS011;56280;49.662;8.408;2022-08-05T00:26:32;13.03;;;7.67;;
69172;SDS011;56280;49.662;8.408;2022-08-05T00:28:57;14.37;;;8.30;;
69172;SDS011;56280;49.662;8.408;2022-08-05T00:31:23;12.63;;;8.10;;
69172;SDS011;56280;49.662;8.408;2022-08-05T00:33:48;13.97;;;7.67;;
69172;SDS011;56280;49.662;8.408;2022-08-05T00:36:13;15.30;;;7.70;;
69172;SDS011;56280;49.662;8.408;2022-08-05T00:38:39;12.67;;;7.67;;
69172;SDS011;56280;49.662;8.408;2022-08-05T00:41:04;10.90;;;7.10;;
69172;SDS011;56280;49.662;8.408;2022-08-05T00:43:31;11.53;;;7.20;;
69172;SDS011;56280;49.662;8.408;2022-08-05T00:45:58;11.10;;;6.80;;
69172;SDS011;56280;49.662;8.408;2022-08-05T00:48:23;12.90;;;6.80;;
69172;SDS011;56280;49.662;8.408;2022-08-05T00:50:49;11.30;;;6.65;;
69172;SDS011;56280;49.662;8.408;2022-08-05T00:53:16;12.98;;;6.80;;
69172;SDS011;56280;49.662;8.408;2022-08-05T00:55:43;15.27;;;7.68;;
69172;SDS011;56280;49.662;8.408;2022-08-05T00:58:13;11.57;;;7.37;;
69172;SDS011;56280;49.662;8.408;2022-08-05T01:00:42;12.60;;;7.22;;
69172;SDS011;56280;49.662;8.408;2022-08-05T01:03:09;13.68;;;7.72;;
69172;SDS011;56280;49.662;8.408;2022-08-05T01:05:34;9.50;;;7.00;;
69172;SDS011;56280;49.662;8.408;2022-08-05T01:08:00;10.95;;;7.25;;
69172;SDS011;56280;49.662;8.408;2022-08-05T01:14:02;9.38;;;7.25;;
69172;SDS011;56280;49.662;8.408;2022-08-05T01:25:02;11.50;;;7.40;;
69172;SDS011;56280;49.662;8.408;2022-08-05T01:30:31;11.77;;;7.78;;
69172;SDS011;56280;49.662;8.408;2022-08-05T01:33:01;9.05;;;7.50;;
69172;SDS011;56280;49.662;8.408;2022-08-05T01:35:31;10.00;;;6.70;;
69172;SDS011;56280;49.662;8.408;2022-08-05T01:37:58;14.55;;;7.25;;
69172;SDS011;56280;49.662;8.408;2022-08-05T01:40:27;10.50;;;7.25;;
69172;SDS011;56280;49.662;8.408;2022-08-05T01:42:54;10.48;;;7.53;;
69172;SDS011;56280;49.662;8.408;2022-08-05T01:45:21;11.07;;;6.75;;
69172;SDS011;56280;49.662;8.408;2022-08-05T01:47:49;10.97;;;6.73;;
69172;SDS011;56280;49.662;8.408;2022-08-05T01:50:17;10.40;;;6.82;;
69172;SDS011;56280;49.662;8.408;2022-08-05T01:52:48;11.55;;;6.85;;
69172;SDS011;56280;49.662;8.408;2022-08-05T01:55:18;10.38;;;6.40;;
69172;SDS011;56280;49.662;8.408;2022-08-05T01:57:46;12.27;;;6.65;;
69172;SDS011;56280;49.662;8.408;2022-08-05T02:00:13;10.00;;;6.20;;
69172;SDS011;56280;49.662;8.408;2022-08-05T02:02:59;10.60;;;6.90;;
69172;SDS011;56280;49.662;8.408;2022-08-05T02:05:29;13.35;;;6.82;;
69172;SDS011;56280;49.662;8.408;2022-08-05T02:07:56;9.60;;;6.20;;
69172;SDS011;56280;49.662;8.408;2022-08-05T02:10:22;9.70;;;6.05;;
69172;SDS011;56280;49.662;8.408;2022-08-05T02:12:51;9.63;;;5.87;;
69172;SDS011;56280;49.662;8.408;2022-08-05T02:15:23;10.00;;;5.65;;
69172;SDS011;56280;49.662;8.408;2022-08-05T02:17:52;11.65;;;6.38;;
69172;SDS011;56280;49.662;8.408;2022-08-05T02:20:27;12.15;;;6.53;;
69172;SDS011;56280;49.662;8.408;2022-08-05T02:22:58;9.40;;;6.25;;
69172;SDS011;56280;49.662;8.408;2022-08-05T02:25:27;9.63;;;6.00;;
69172;SDS011;56280;49.662;8.408;2022-08-05T02:27:55;11.95;;;6.32;;
69172;SDS011;56280;49.662;8.408;2022-08-05T02:30:22;13.68;;;6.75;;
69172;SDS011;56280;49.662;8.408;2022-08-05T02:32:50;9.38;;;5.88;;
69172;SDS011;56280;49.662;8.408;2022-08-05T02:35:21;10.48;;;6.22;;
69172;SDS011;56280;49.662;8.408;2022-08-05T02:37:49;9.30;;;5.93;;
69172;SDS011;56280;49.662;8.408;2022-08-05T02:40:17;9.35;;;6.22;;
69172;SDS011;56280;49.662;8.408;2022-08-05T02:42:45;8.02;;;5.90;;
69172;SDS011;56280;49.662;8.408;2022-08-05T02:45:12;8.07;;;6.38;;
69172;SDS011;56280;49.662;8.408;2022-08-05T02:47:40;9.95;;;6.60;;
69172;SDS011;56280;49.662;8.408;2022-08-05T02:50:07;9.57;;;6.60;;
69172;SDS011;56280;49.662;8.408;2022-08-05T02:52:37;10.30;;;7.20;;
69172;SDS011;56280;49.662;8.408;2022-08-05T02:55:04;12.73;;;7.47;;
69172;SDS011;56280;49.662;8.408;2022-08-05T02:57:31;11.68;;;6.75;;
69172;SDS011;56280;49.662;8.408;2022-08-05T02:59:58;12.05;;;6.82;;
69172;SDS011;56280;49.662;8.408;2022-08-05T03:02:27;10.17;;;6.97;;
69172;SDS011;56280;49.662;8.408;2022-08-05T03:04:56;10.25;;;7.10;;
69172;SDS011;56280;49.662;8.408;2022-08-05T03:07:22;13.70;;;7.68;;
69172;SDS011;56280;49.662;8.408;2022-08-05T03:09:49;10.95;;;8.55;;
69172;SDS011;56280;49.662;8.408;2022-08-05T03:12:28;9.65;;;6.70;;
69172;SDS011;56280;49.662;8.408;2022-08-05T03:14:54;12.55;;;6.60;;
69172;SDS011;56280;49.662;8.408;2022-08-05T03:17:20;11.60;;;6.30;;
69172;SDS011;56280;49.662;8.408;2022-08-05T03:19:45;10.43;;;6.20;;
69172;SDS011;56280;49.662;8.408;2022-08-05T03:22:10;8.03;;;5.97;;
69172;SDS011;56280;49.662;8.408;2022-08-05T03:24:36;8.83;;;5.87;;
69172;SDS011;56280;49.662;8.408;2022-08-05T03:27:01;8.40;;;5.93;;
69172;SDS011;56280;49.662;8.408;2022-08-05T03:29:27;8.65;;;6.35;;
69172;SDS011;56280;49.662;8.408;2022-08-05T03:31:52;8.83;;;6.47;;
69172;SDS011;56280;49.662;8.408;2022-08-05T03:34:18;9.63;;;6.80;;
69172;SDS011;56280;49.662;8.408;2022-08-05T03:36:44;9.90;;;6.80;;
69172;SDS011;56280;49.662;8.408;2022-08-05T03:39:09;9.97;;;7.70;;
69172;SDS011;56280;49.662;8.408;2022-08-05T03:41:34;11.37;;;8.27;;
69172;SDS011;56280;49.662;8.408;2022-08-05T03:44:00;10.37;;;5.70;;
69172;SDS011;56280;49.662;8.408;2022-08-05T03:46:25;9.30;;;4.93;;
69172;SDS011;56280;49.662;8.408;2022-08-05T03:48:50;9.38;;;4.05;;
69172;SDS011;56280;49.662;8.408;2022-08-05T03:51:16;7.70;;;3.90;;
69172;SDS011;56280;49.662;8.408;2022-08-05T03:53:54;6.27;;;3.70;;
69172;SDS011;56280;49.662;8.408;2022-08-05T03:56:27;6.70;;;3.90;;
69172;SDS011;56280;49.662;8.408;2022-08-05T03:58:59;7.45;;;4.55;;
69172;SDS011;56280;49.662;8.408;2022-08-05T04:01:27;7.25;;;4.32;;
69172;SDS011;56280;49.662;8.408;2022-08-05T04:03:55;7.90;;;4.45;;
69172;SDS011;56280;49.662;8.408;2022-08-05T04:06:23;6.37;;;4.20;;
69172;SDS011;56280;49.662;8.408;2022-08-05T04:08:49;7.25;;;4.47;;
69172;SDS011;56280;49.662;8.408;2022-08-05T04:11:15;9.13;;;4.68;;
69172;SDS011;56280;49.662;8.408;2022-08-05T04:13:41;8.50;;;5.37;;
69172;SDS011;56280;49.662;8.408;2022-08-05T04:16:10;9.03;;;5.00;;
69172;SDS011;56280;49.662;8.408;2022-08-05T04:18:37;8.82;;;4.88;;
69172;SDS011;56280;49.662;8.408;2022-08-05T04:21:03;9.50;;;5.35;;
69172;SDS011;56280;49.662;8.408;2022-08-05T04:23:29;8.13;;;4.95;;
69172;SDS011;56280;49.662;8.408;2022-08-05T04:25:55;8.17;;;4.83;;
69172;SDS011;56280;49.662;8.408;2022-08-05T04:28:20;8.77;;;5.20;;
69172;SDS011;56280;49.662;8.408;2022-08-05T04:30:46;8.00;;;4.80;;
69172;SDS011;56280;49.662;8.408;2022-08-05T04:33:12;7.38;;;4.50;;
69172;SDS011;56280;49.662;8.408;2022-08-05T04:35:39;7.40;;;5.10;;
69172;SDS011;56280;49.662;8.408;2022-08-05T04:38:05;7.82;;;4.85;;
69172;SDS011;56280;49.662;8.408;2022-08-05T04:40:33;6.43;;;4.03;;
69172;SDS011;56280;49.662;8.408;2022-08-05T04:43:00;8.55;;;4.60;;
69172;SDS011;56280;49.662;8.408;2022-08-05T04:45:25;8.30;;;4.53;;
69172;SDS011;56280;49.662;8.408;2022-08-05T04:47:51;7.20;;;4.22;;
69172;SDS011;56280;49.662;8.408;2022-08-05T04:50:16;5.90;;;4.00;;
69172;SDS011;56280;49.662;8.408;2022-08-05T04:52:43;6.93;;;4.20;;
69172;SDS011;56280;49.662;8.408;2022-08-05T04:55:08;7.25;;;3.97;;
69172;SDS011;56280;49.662;8.408;2022-08-05T04:57:34;6.47;;;4.50;;
69172;SDS011;56280;49.662;8.408;2022-08-05T04:59:59;6.07;;;3.60;;
69172;SDS011;56280;49.662;8.408;2022-08-05T05:02:25;7.17;;;4.10;;
69172;SDS011;56280;49.662;8.408;2022-08-05T05:04:50;7.00;;;3.83;;
69172;SDS011;56280;49.662;8.408;2022-08-05T05:07:16;5.97;;;3.90;;
69172;SDS011;56280;49.662;8.408;2022-08-05T05:09:42;5.57;;;3.67;;
69172;SDS011;56280;49.662;8.408;2022-08-05T05:12:07;6.73;;;3.87;;
69172;SDS011;56280;49.662;8.408;2022-08-05T05:14:33;6.57;;;3.50;;
69172;SDS011;56280;49.662;8.408;2022-08-05T05:16:58;6.05;;;3.50;;
69172;SDS011;56280;49.662;8.408;2022-08-05T05:19:24;6.40;;;3.70;;
69172;SDS011;56280;49.662;8.408;2022-08-05T05:21:50;7.33;;;3.50;;
69172;SDS011;56280;49.662;8.408;2022-08-05T05:24:15;7.35;;;3.97;;
69172;SDS011;56280;49.662;8.408;2022-08-05T05:26:40;5.23;;;3.33;;
69172;SDS011;56280;49.662;8.408;2022-08-05T05:29:06;7.40;;;3.80;;
69172;SDS011;56280;49.662;8.408;2022-08-05T05:31:31;5.10;;;3.43;;
69172;SDS011;56280;49.662;8.408;2022-08-05T05:33:56;6.47;;;3.90;;
69172;SDS011;56280;49.662;8.408;2022-08-05T05:36:22;5.18;;;3.30;;
69172;SDS011;56280;49.662;8.408;2022-08-05T05:38:48;6.90;;;3.53;;
69172;SDS011;56280;49.662;8.408;2022-08-05T05:41:13;5.43;;;3.83;;
69172;SDS011;56280;49.662;8.408;2022-08-05T05:43:38;9.70;;;3.80;;
69172;SDS011;56280;49.662;8.408;2022-08-05T05:46:04;6.63;;;3.87;;
69172;SDS011;56280;49.662;8.408;2022-08-05T05:48:29;5.50;;;3.45;;
69172;SDS011;56280;49.662;8.408;2022-08-05T05:50:55;5.93;;;3.70;;
69172;SDS011;56280;49.662;8.408;2022-08-05T05:53:20;5.93;;;3.87;;
69172;SDS011;56280;49.662;8.408;2022-08-05T05:55:45;5.57;;;3.30;;
69172;SDS011;56280;49.662;8.408;2022-08-05T05:58:11;7.82;;;3.40;;
69172;SDS011;56280;49.662;8.408;2022-08-05T06:00:36;5.27;;;3.20;;
69172;SDS011;56280;49.662;8.408;2022-08-05T06:03:01;5.63;;;3.57;;
69172;SDS011;56280;49.662;8.408;2022-08-05T06:05:27;6.47;;;3.60;;
69172;SDS011;56280;49.662;8.408;2022-08-05T06:07:53;6.13;;;3.58;;
69172;SDS011;56280;49.662;8.408;2022-08-05T06:10:18;5.33;;;3.47;;
69172;SDS011;56280;49.662;8.408;2022-08-05T06:12:43;4.43;;;3.13;;
69172;SDS011;56280;49.662;8.408;2022-08-05T06:15:09;6.60;;;3.13;;
69172;SDS011;56280;49.662;8.408;2022-08-05T06:17:34;5.07;;;3.20;;
69172;SDS011;56280;49.662;8.408;2022-08-05T06:20:00;5.85;;;3.45;;
69172;SDS011;56280;49.662;8.408;2022-08-05T06:22:26;4.93;;;3.10;;
69172;SDS011;56280;49.662;8.408;2022-08-05T06:24:53;6.63;;;3.20;;
69172;SDS011;56280;49.662;8.408;2022-08-05T06:27:19;5.27;;;3.27;;
69172;SDS011;56280;49.662;8.408;2022-08-05T06:29:44;5.70;;;3.33;;
69172;SDS011;56280;49.662;8.408;2022-08-05T06:32:09;5.30;;;3.27;;
69172;SDS011;56280;49.662;8.408;2022-08-05T06:34:35;6.47;;;2.97;;
69172;SDS011;56280;49.662;8.408;2022-08-05T06:37:01;5.07;;;3.22;;
69172;SDS011;56280;49.662;8.408;2022-08-05T06:39:27;4.53;;;2.70;;
69172;SDS011;56280;49.662;8.408;2022-08-05T06:41:52;4.70;;;2.70;;
69172;SDS011;56280;49.662;8.408;2022-08-05T06:44:18;5.22;;;2.90;;
69172;SDS011;56280;49.662;8.408;2022-08-05T06:46:43;5.18;;;3.05;;
69172;SDS011;56280;49.662;8.408;2022-08-05T06:49:08;4.30;;;2.90;;
69172;SDS011;56280;49.662;8.408;2022-08-05T06:51:33;4.83;;;3.10;;
69172;SDS011;56280;49.662;8.408;2022-08-05T06:53:59;6.70;;;3.10;;
69172;SDS011;56280;49.662;8.408;2022-08-05T06:56:26;4.88;;;3.42;;
69172;SDS011;56280;49.662;8.408;2022-08-05T06:58:53;4.30;;;3.00;;
69172;SDS011;56280;49.662;8.408;2022-08-05T07:01:19;5.90;;;2.90;;
69172;SDS011;56280;49.662;8.408;2022-08-05T07:03:44;5.40;;;3.23;;
69172;SDS011;56280;49.662;8.408;2022-08-05T07:06:09;5.67;;;3.47;;
69172;SDS011;56280;49.662;8.408;2022-08-05T07:08:35;5.95;;;3.28;;
69172;SDS011;56280;49.662;8.408;2022-08-05T07:11:01;4.93;;;3.30;;
69172;SDS011;56280;49.662;8.408;2022-08-05T07:13:26;8.52;;;3.58;;
69172;SDS011;56280;49.662;8.408;2022-08-05T07:16:10;5.68;;;3.60;;
69172;SDS011;56280;49.662;8.408;2022-08-05T07:18:54;6.53;;;3.40;;
69172;SDS011;56280;49.662;8.408;2022-08-05T07:21:19;5.90;;;3.50;;
69172;SDS011;56280;49.662;8.408;2022-08-05T07:23:44;5.43;;;3.90;;
69172;SDS011;56280;49.662;8.408;2022-08-05T07:26:10;5.22;;;3.72;;
69172;SDS011;56280;49.662;8.408;2022-08-05T07:28:35;7.20;;;3.70;;
69172;SDS011;56280;49.662;8.408;2022-08-05T07:31:00;10.03;;;3.70;;
69172;SDS011;56280;49.662;8.408;2022-08-05T07:33:26;9.73;;;3.70;;
69172;SDS011;56280;49.662;8.408;2022-08-05T07:35:51;7.43;;;3.63;;
69172;SDS011;56280;49.662;8.408;2022-08-05T07:38:17;6.00;;;4.00;;
69172;SDS011;56280;49.662;8.408;2022-08-05T07:40:43;6.93;;;3.90;;
69172;SDS011;56280;49.662;8.408;2022-08-05T07:43:09;5.72;;;3.60;;
69172;SDS011;56280;49.662;8.408;2022-08-05T07:45:35;5.75;;;3.85;;
69172;SDS011;56280;49.662;8.408;2022-08-05T07:48:00;5.30;;;3.63;;
69172;SDS011;56280;49.662;8.408;2022-08-05T07:50:26;12.00;;;3.50;;
69172;SDS011;56280;49.662;8.408;2022-08-05T07:52:51;6.47;;;3.73;;
69172;SDS011;56280;49.662;8.408;2022-08-05T07:55:17;7.10;;;3.67;;
69172;SDS011;56280;49.662;8.408;2022-08-05T07:57:42;5.82;;;3.83;;
69172;SDS011;56280;49.662;8.408;2022-08-05T08:00:08;7.45;;;4.03;;
69172;SDS011;56280;49.662;8.408;2022-08-05T08:02:34;6.30;;;3.97;;
69172;SDS011;56280;49.662;8.408;2022-08-05T08:04:59;7.97;;;3.75;;
69172;SDS011;56280;49.662;8.408;2022-08-05T08:07:25;7.90;;;4.60;;
69172;SDS011;56280;49.662;8.408;2022-08-05T08:09:51;6.40;;;4.10;;
69172;SDS011;56280;49.662;8.408;2022-08-05T08:12:16;7.03;;;4.05;;
69172;SDS011;56280;49.662;8.408;2022-08-05T08:14:42;7.10;;;3.80;;
69172;SDS011;56280;49.662;8.408;2022-08-05T08:17:07;6.75;;;4.28;;
69172;SDS011;56280;49.662;8.408;2022-08-05T08:19:36;7.63;;;3.77;;
69172;SDS011;56280;49.662;8.408;2022-08-05T08:22:02;6.88;;;4.32;;
69172;SDS011;56280;49.662;8.408;2022-08-05T08:24:31;7.80;;;4.40;;
69172;SDS011;56280;49.662;8.408;2022-08-05T08:26:57;9.83;;;4.20;;
69172;SDS011;56280;49.662;8.408;2022-08-05T08:29:22;8.43;;;4.20;;
69172;SDS011;56280;49.662;8.408;2022-08-05T08:31:48;5.47;;;3.92;;
69172;SDS011;56280;49.662;8.408;2022-08-05T08:34:14;5.07;;;3.63;;
69172;SDS011;56280;49.662;8.408;2022-08-05T08:36:40;6.25;;;3.17;;
69172;SDS011;56280;49.662;8.408;2022-08-05T08:39:06;6.93;;;3.43;;
69172;SDS011;56280;49.662;8.408;2022-08-05T08:41:32;6.00;;;3.72;;
69172;SDS011;56280;49.662;8.408;2022-08-05T08:44:00;6.00;;;3.70;;
69172;SDS011;56280;49.662;8.408;2022-08-05T08:46:27;5.77;;;3.43;;
69172;SDS011;56280;49.662;8.408;2022-08-05T08:48:55;5.70;;;3.70;;
69172;SDS011;56280;49.662;8.408;2022-08-05T08:51:21;5.97;;;3.70;;
69172;SDS011;56280;49.662;8.408;2022-08-05T08:53:48;6.03;;;3.92;;
69172;SDS011;56280;49.662;8.408;2022-08-05T08:56:13;7.10;;;4.70;;
69172;SDS011;56280;49.662;8.408;2022-08-05T08:58:40;8.38;;;5.35;;
69172;SDS011;56280;49.662;8.408;2022-08-05T09:01:06;7.32;;;4.38;;
69172;SDS011;56280;49.662;8.408;2022-08-05T09:03:32;8.00;;;4.57;;
69172;SDS011;56280;49.662;8.408;2022-08-05T09:05:58;7.77;;;4.57;;
69172;SDS011;56280;49.662;8.408;2022-08-05T09:08:24;6.77;;;4.47;;
69172;SDS011;56280;49.662;8.408;2022-08-05T09:10:50;6.50;;;4.00;;
69172;SDS011;56280;49.662;8.408;2022-08-05T09:13:15;6.40;;;3.78;;
69172;SDS011;56280;49.662;8.408;2022-08-05T09:15:41;5.53;;;3.40;;
69172;SDS011;56280;49.662;8.408;2022-08-05T09:18:07;4.97;;;3.77;;
69172;SDS011;56280;49.662;8.408;2022-08-05T09:20:33;6.03;;;3.92;;
69172;SDS011;56280;49.662;8.408;2022-08-05T09:25:40;7.53;;;3.55;;
69172;SDS011;56280;49.662;8.408;2022-08-05T09:28:11;5.40;;;3.63;;
69172;SDS011;56280;49.662;8.408;2022-08-05T09:31:01;5.22;;;3.22;;
69172;SDS011;56280;49.662;8.408;2022-08-05T09:33:31;5.38;;;3.22;;
69172;SDS011;56280;49.662;8.408;2022-08-05T09:36:00;4.97;;;3.05;;
69172;SDS011;56280;49.662;8.408;2022-08-05T09:38:30;4.35;;;2.88;;
69172;SDS011;56280;49.662;8.408;2022-08-05T09:41:03;4.93;;;3.30;;
69172;SDS011;56280;49.662;8.408;2022-08-05T09:45:58;6.55;;;3.72;;
69172;SDS011;56280;49.662;8.408;2022-08-05T09:48:24;6.03;;;3.58;;
69172;SDS011;56280;49.662;8.408;2022-08-05T09:50:56;4.73;;;3.37;;
69172;SDS011;56280;49.662;8.408;2022-08-05T09:53:23;7.13;;;3.80;;
69172;SDS011;56280;49.662;8.408;2022-08-05T09:55:50;6.25;;;3.83;;
69172;SDS011;56280;49.662;8.408;2022-08-05T09:58:23;5.60;;;3.38;;
69172;SDS011;56280;49.662;8.408;2022-08-05T10:00:51;4.75;;;3.33;;
69172;SDS011;56280;49.662;8.408;2022-08-05T10:03:17;4.17;;;3.07;;
69172;SDS011;56280;49.662;8.408;2022-08-05T10:05:42;6.18;;;3.33;;
69172;SDS011;56280;49.662;8.408;2022-08-05T10:08:08;4.87;;;3.10;;
69172;SDS011;56280;49.662;8.408;2022-08-05T10:10:38;6.28;;;3.50;;
69172;SDS011;56280;49.662;8.408;2022-08-05T10:13:11;5.88;;;3.30;;
69172;SDS011;56280;49.662;8.408;2022-08-05T10:15:49;4.68;;;3.30;;
69172;SDS011;56280;49.662;8.408;2022-08-05T10:18:18;5.90;;;3.33;;
69172;SDS011;56280;49.662;8.408;2022-08-05T10:23:14;5.32;;;3.28;;
69172;SDS011;56280;49.662;8.408;2022-08-05T10:25:45;5.35;;;3.70;;
69172;SDS011;56280;49.662;8.408;2022-08-05T10:28:11;7.00;;;3.60;;
69172;SDS011;56280;49.662;8.408;2022-08-05T10:30:36;4.80;;;3.00;;
69172;SDS011;56280;49.662;8.408;2022-08-05T10:33:03;4.82;;;3.42;;
69172;SDS011;56280;49.662;8.408;2022-08-05T10:35:30;4.78;;;3.28;;
69172;SDS011;56280;49.662;8.408;2022-08-05T10:37:58;5.07;;;3.45;;
69172;SDS011;56280;49.662;8.408;2022-08-05T10:43:01;4.30;;;3.15;;
69172;SDS011;56280;49.662;8.408;2022-08-05T10:45:33;5.47;;;3.00;;
69172;SDS011;56280;49.662;8.408;2022-08-05T10:48:16;5.95;;;3.17;;
69172;SDS011;56280;49.662;8.408;2022-08-05T10:50:59;4.68;;;3.08;;
69172;SDS011;56280;49.662;8.408;2022-08-05T10:56:25;4.50;;;2.85;;
69172;SDS011;56280;49.662;8.408;2022-08-05T11:01:29;5.93;;;3.20;;
69172;SDS011;56280;49.662;8.408;2022-08-05T11:04:16;5.55;;;3.10;;
69172;SDS011;56280;49.662;8.408;2022-08-05T11:09:41;5.15;;;3.22;;
69172;SDS011;56280;49.662;8.408;2022-08-05T11:12:40;35.65;;;12.07;;
69172;SDS011;56280;49.662;8.408;2022-08-05T11:15:18;71.93;;;26.48;;
69172;SDS011;56280;49.662;8.408;2022-08-05T11:20:50;5.78;;;3.47;;
69172;SDS011;56280;49.662;8.408;2022-08-05T11:26:00;5.43;;;3.30;;
69172;SDS011;56280;49.662;8.408;2022-08-05T11:33:32;5.07;;;3.22;;
69172;SDS011;56280;49.662;8.408;2022-08-05T11:36:11;4.25;;;2.80;;
69172;SDS011;56280;49.662;8.408;2022-08-05T11:41:03;4.73;;;3.20;;
69172;SDS011;56280;49.662;8.408;2022-08-05T11:43:30;4.40;;;2.92;;
69172;SDS011;56280;49.662;8.408;2022-08-05T11:45:56;5.38;;;3.38;;
69172;SDS011;56280;49.662;8.408;2022-08-05T11:48:22;5.00;;;3.20;;
69172;SDS011;56280;49.662;8.408;2022-08-05T11:50:48;5.38;;;3.10;;
69172;SDS011;56280;49.662;8.408;2022-08-05T11:53:14;4.75;;;3.30;;
69172;SDS011;56280;49.662;8.408;2022-08-05T11:58:35;5.47;;;3.10;;
69172;SDS011;56280;49.662;8.408;2022-08-05T12:01:13;5.28;;;3.10;;
69172;SDS011;56280;49.662;8.408;2022-08-05T12:03:41;5.97;;;3.28;;
69172;SDS011;56280;49.662;8.408;2022-08-05T12:06:09;4.60;;;3.13;;
69172;SDS011;56280;49.662;8.408;2022-08-05T12:08:38;3.80;;;2.73;;
69172;SDS011;56280;49.662;8.408;2022-08-05T12:11:08;6.13;;;3.45;;
69172;SDS011;56280;49.662;8.408;2022-08-05T12:13:34;7.82;;;3.33;;
69172;SDS011;56280;49.662;8.408;2022-08-05T12:16:01;4.35;;;2.83;;
69172;SDS011;56280;49.662;8.408;2022-08-05T12:18:30;4.57;;;3.00;;
69172;SDS011;56280;49.662;8.408;2022-08-05T12:21:07;4.40;;;2.95;;
69172;SDS011;56280;49.662;8.408;2022-08-05T12:23:53;5.10;;;3.42;;
69172;SDS011;56280;49.662;8.408;2022-08-05T12:26:24;6.40;;;2.97;;
69172;SDS011;56280;49.662;8.408;2022-08-05T12:28:55;4.38;;;2.90;;
69172;SDS011;56280;49.662;8.408;2022-08-05T12:31:20;5.03;;;2.83;;
69172;SDS011;56280;49.662;8.408;2022-08-05T12:33:46;7.00;;;2.93;;
69172;SDS011;56280;49.662;8.408;2022-08-05T12:36:12;5.55;;;3.25;;
69172;SDS011;56280;49.662;8.408;2022-08-05T12:38:38;4.13;;;3.13;;
69172;SDS011;56280;49.662;8.408;2022-08-05T12:41:08;4.50;;;3.40;;
69172;SDS011;56280;49.662;8.408;2022-08-05T12:43:50;4.43;;;3.30;;
69172;SDS011;56280;49.662;8.408;2022-08-05T12:46:27;5.28;;;3.47;;
69172;SDS011;56280;49.662;8.408;2022-08-05T12:49:00;5.93;;;3.30;;
69172;SDS011;56280;49.662;8.408;2022-08-05T12:56:49;4.47;;;2.90;;
69172;SDS011;56280;49.662;8.408;2022-08-05T12:59:17;6.40;;;3.33;;
69172;SDS011;56280;49.662;8.408;2022-08-05T13:01:54;5.72;;;2.97;;
69172;SDS011;56280;49.662;8.408;2022-08-05T13:04:20;5.38;;;3.25;;
69172;SDS011;56280;49.662;8.408;2022-08-05T13:06:47;4.88;;;3.35;;
69172;SDS011;56280;49.662;8.408;2022-08-05T13:09:13;5.00;;;3.40;;
69172;SDS011;56280;49.662;8.408;2022-08-05T13:11:40;7.60;;;3.35;;
69172;SDS011;56280;49.662;8.408;2022-08-05T13:14:10;4.45;;;3.00;;
69172;SDS011;56280;49.662;8.408;2022-08-05T13:16:44;5.43;;;3.60;;
69172;SDS011;56280;49.662;8.408;2022-08-05T13:19:21;6.28;;;3.38;;
69172;SDS011;56280;49.662;8.408;2022-08-05T13:21:47;4.10;;;3.10;;
69172;SDS011;56280;49.662;8.408;2022-08-05T13:24:13;5.07;;;3.42;;
69172;SDS011;56280;49.662;8.408;2022-08-05T13:26:39;4.88;;;3.30;;
69172;SDS011;56280;49.662;8.408;2022-08-05T13:29:04;4.87;;;3.40;;
69172;SDS011;56280;49.662;8.408;2022-08-05T13:31:30;4.97;;;3.57;;
69172;SDS011;56280;49.662;8.408;2022-08-05T13:33:55;5.30;;;3.30;;
69172;SDS011;56280;49.662;8.408;2022-08-05T13:36:20;5.77;;;3.57;;
69172;SDS011;56280;49.662;8.408;2022-08-05T13:38:46;5.23;;;3.30;;
69172;SDS011;56280;49.662;8.408;2022-08-05T13:41:11;5.80;;;3.23;;
69172;SDS011;56280;49.662;8.408;2022-08-05T13:43:36;4.95;;;3.42;;
69172;SDS011;56280;49.662;8.408;2022-08-05T13:46:02;5.87;;;3.63;;
69172;SDS011;56280;49.662;8.408;2022-08-05T13:48:27;5.20;;;3.67;;
69172;SDS011;56280;49.662;8.408;2022-08-05T13:50:53;5.18;;;3.60;;
69172;SDS011;56280;49.662;8.408;2022-08-05T13:53:18;6.10;;;3.78;;
69172;SDS011;56280;49.662;8.408;2022-08-05T13:55:43;6.43;;;3.80;;
69172;SDS011;56280;49.662;8.408;2022-08-05T13:58:09;6.07;;;3.67;;
69172;SDS011;56280;49.662;8.408;2022-08-05T14:00:34;6.20;;;3.90;;
69172;SDS011;56280;49.662;8.408;2022-08-05T14:03:00;6.03;;;3.72;;
69172;SDS011;56280;49.662;8.408;2022-08-05T14:05:26;9.43;;;4.07;;
69172;SDS011;56280;49.662;8.408;2022-08-05T14:07:51;7.25;;;4.10;;
69172;SDS011;56280;49.662;8.408;2022-08-05T14:10:20;6.87;;;4.20;;
69172;SDS011;56280;49.662;8.408;2022-08-05T14:12:50;4.70;;;3.80;;
69172;SDS011;56280;49.662;8.408;2022-08-05T14:15:16;6.60;;;3.97;;
69172;SDS011;56280;49.662;8.408;2022-08-05T14:17:41;5.13;;;3.80;;
69172;SDS011;56280;49.662;8.408;2022-08-05T14:20:07;5.23;;;3.80;;
69172;SDS011;56280;49.662;8.408;2022-08-05T14:22:33;5.82;;;3.55;;
69172;SDS011;56280;49.662;8.408;2022-08-05T14:24:59;5.05;;;3.83;;
69172;SDS011;56280;49.662;8.408;2022-08-05T14:27:24;8.80;;;4.93;;
69172;SDS011;56280;49.662;8.408;2022-08-05T14:29:49;7.80;;;6.03;;
69172;SDS011;56280;49.662;8.408;2022-08-05T14:32:15;10.48;;;7.03;;
69172;SDS011;56280;49.662;8.408;2022-08-05T14:34:40;9.05;;;7.75;;
69172;SDS011;56280;49.662;8.408;2022-08-05T14:37:06;9.20;;;7.63;;
69172;SDS011;56280;49.662;8.408;2022-08-05T14:39:31;10.93;;;7.67;;
69172;SDS011;56280;49.662;8.408;2022-08-05T14:41:57;10.35;;;8.45;;
69172;SDS011;56280;49.662;8.408;2022-08-05T14:44:22;10.40;;;8.87;;
69172;SDS011;56280;49.662;8.408;2022-08-05T14:46:47;14.23;;;10.07;;
69172;SDS011;56280;49.662;8.408;2022-08-05T14:49:13;14.50;;;10.40;;
69172;SDS011;56280;49.662;8.408;2022-08-05T14:51:38;12.33;;;9.43;;
69172;SDS011;56280;49.662;8.408;2022-08-05T14:54:07;14.77;;;9.80;;
69172;SDS011;56280;49.662;8.408;2022-08-05T14:56:32;14.30;;;10.90;;
69172;SDS011;56280;49.662;8.408;2022-08-05T14:58:58;13.38;;;10.63;;
69172;SDS011;56280;49.662;8.408;2022-08-05T15:01:24;14.50;;;11.27;;
69172;SDS011;56280;49.662;8.408;2022-08-05T15:03:49;15.67;;;12.03;;
69172;SDS011;56280;49.662;8.408;2022-08-05T15:06:14;15.27;;;11.77;;
69172;SDS011;56280;49.662;8.408;2022-08-05T15:08:40;16.70;;;12.97;;
69172;SDS011;56280;49.662;8.408;2022-08-05T15:11:06;16.52;;;13.15;;
69172;SDS011;56280;49.662;8.408;2022-08-05T15:13:32;20.08;;;15.25;;
69172;SDS011;56280;49.662;8.408;2022-08-05T15:15:57;20.13;;;15.00;;
69172;SDS011;56280;49.662;8.408;2022-08-05T15:18:23;22.30;;;16.37;;
69172;SDS011;56280;49.662;8.408;2022-08-05T15:20:49;21.30;;;16.92;;
69172;SDS011;56280;49.662;8.408;2022-08-05T15:23:14;22.05;;;16.17;;
69172;SDS011;56280;49.662;8.408;2022-08-05T15:25:39;26.10;;;17.27;;
69172;SDS011;56280;49.662;8.408;2022-08-05T15:28:05;22.67;;;17.07;;
69172;SDS011;56280;49.662;8.408;2022-08-05T15:30:31;22.73;;;17.50;;
69172;SDS011;56280;49.662;8.408;2022-08-05T15:32:58;26.05;;;18.42;;
69172;SDS011;56280;49.662;8.408;2022-08-05T15:35:24;25.23;;;18.88;;
69172;SDS011;56280;49.662;8.408;2022-08-05T15:37:51;25.27;;;19.17;;
69172;SDS011;56280;49.662;8.408;2022-08-05T15:40:16;26.85;;;19.58;;